Estevan Airport
CYEN : now visible

Airfield :











YOU CAN JOIN US ON...

 
LOGIN :

Register | Disclaimer

   EN    FR    IT 

 









Legend :    VFR   Marginal VFR   IFR   Intensive IFR   Very Intensive IFR
Visi :
Ceiling :
>= 8 km
>= 3000ft
5 to 8 km
1000 to 3000 ft
1500m to 5 km
500 to 1000 ft
800 to 1500m
200 to 500 ft
< 800m
< 200 ft
Symbols :   Thunderstorms  Fog  Heavy snow  Heavy precipitations  Wind > 20 kt






- Airport Elevation : 1905 ft
- IATA code : YEN


CYEN - Estevan

CURRENT METAR :
  • 291331Z AUTO VRB02KT 1 3/4SM BR OVC006 M04/M05 A3004 RMK SLP206

EXPIRED METARs :
  • 291311Z AUTO 14003KT 080V170 2SM BR OVC006 M04/M05 A3004 RMK SLP205
  • 291300Z AUTO 09003KT 1 3/4SM BR OVC006 M04/M05 A3003 RMK SLP204
  • 291200Z AUTO 11005KT 2 1/2SM BR OVC006 M04/M04 A3002 RMK SLP200
  • 291115Z AUTO 13004KT 2SM BR OVC006 M04/M04 A3002 RMK SLP200
  • 291100Z AUTO 11004KT 1 1/2SM BR OVC006 M04/M04 A3002 RMK ICG PAST HR SLP198
  • 291040Z AUTO 12004KT 1 1/2SM BR OVC008 M04/M04 A3001 RMK ICG INTMT SLP198

TAF TAF CYEN
Valid from the 29 at 12:00 until the 30 at 00:00 UTC


291151Z 2912/2924 13004KT 3SM BR OVC006
TEMPO 2912/2920 11/2SM BR OVC004
BECMG 2917/2919 24005KT
FM292100 24005KT 5SM BR OVC006
TEMPO 2922/2924 6SM BR OVC008 RMK FCST BASED ON AUTO OBS. NXT FCST BY 291800Z



MET'MAP, your aeronautical weather chart ! - Copyright ORBIFLY December 2007 - Disclaimer

ORBIFLY MET'MAP TEAM :

Programming & Development : Alexandra Zaïnal
Concept & original design : Baudouin d'Aumeries
Assistance for programming : Marc-Olivier Méhu
Technical & hardware support : Manuel Goepfert

Contact : metmap@orbifly.com




SOURCES & CREDITS :

   NOAA       Earth
Advisory